sensor_id;sensor_type;location;lat;lon;timestamp;pressure;altitude;pressure_sealevel;temperature;humidity
36630;BME280;36256;42.154;23.002;2023-02-15T00:01:54;98428.03;;;3.38;82.47
36630;BME280;36256;42.154;23.002;2023-02-15T00:04:21;98429.63;;;3.39;82.41
36630;BME280;36256;42.154;23.002;2023-02-15T00:06:49;98435.19;;;3.39;82.64
36630;BME280;36256;42.154;23.002;2023-02-15T00:09:15;98428.63;;;3.21;83.16
36630;BME280;36256;42.154;23.002;2023-02-15T00:11:42;98425.88;;;3.21;83.16
36630;BME280;36256;42.154;23.002;2023-02-15T00:14:24;98431.00;;;3.18;83.36
36630;BME280;36256;42.154;23.002;2023-02-15T00:16:52;98440.22;;;3.30;83.19
36630;BME280;36256;42.154;23.002;2023-02-15T00:19:20;98431.84;;;3.26;83.44
36630;BME280;36256;42.154;23.002;2023-02-15T00:21:48;98423.13;;;3.24;83.37
36630;BME280;36256;42.154;23.002;2023-02-15T00:24:16;98436.53;;;3.18;83.45
36630;BME280;36256;42.154;23.002;2023-02-15T00:26:43;98437.31;;;3.19;83.92
36630;BME280;36256;42.154;23.002;2023-02-15T00:29:11;98426.09;;;3.08;83.85
36630;BME280;36256;42.154;23.002;2023-02-15T00:31:38;98449.22;;;3.19;83.87
36630;BME280;36256;42.154;23.002;2023-02-15T00:34:16;98443.72;;;3.23;83.41
36630;BME280;36256;42.154;23.002;2023-02-15T00:36:44;98451.84;;;3.09;84.09
36630;BME280;36256;42.154;23.002;2023-02-15T00:39:11;98446.69;;;3.07;84.07
36630;BME280;36256;42.154;23.002;2023-02-15T00:41:39;98450.97;;;3.01;84.06
36630;BME280;36256;42.154;23.002;2023-02-15T00:44:05;98445.84;;;3.03;84.20
36630;BME280;36256;42.154;23.002;2023-02-15T00:46:32;98449.16;;;3.12;83.96
36630;BME280;36256;42.154;23.002;2023-02-15T00:48:59;98453.59;;;3.21;83.49
36630;BME280;36256;42.154;23.002;2023-02-15T00:51:26;98454.84;;;3.27;83.11
36630;BME280;36256;42.154;23.002;2023-02-15T00:53:53;98446.84;;;3.22;82.75
36630;BME280;36256;42.154;23.002;2023-02-15T00:56:19;98443.75;;;3.27;82.82
36630;BME280;36256;42.154;23.002;2023-02-15T00:58:46;98445.75;;;3.30;82.60
36630;BME280;36256;42.154;23.002;2023-02-15T01:01:15;98435.13;;;3.35;82.34
36630;BME280;36256;42.154;23.002;2023-02-15T01:03:43;98432.38;;;3.35;81.99
36630;BME280;36256;42.154;23.002;2023-02-15T01:06:10;98440.28;;;3.33;82.08
36630;BME280;36256;42.154;23.002;2023-02-15T01:08:37;98423.94;;;3.28;82.22
36630;BME280;36256;42.154;23.002;2023-02-15T01:11:14;98427.94;;;3.31;82.11
36630;BME280;36256;42.154;23.002;2023-02-15T01:13:41;98421.03;;;3.14;82.60
36630;BME280;36256;42.154;23.002;2023-02-15T01:16:08;98434.41;;;3.08;83.33
36630;BME280;36256;42.154;23.002;2023-02-15T01:18:35;98423.69;;;3.07;83.76
36630;BME280;36256;42.154;23.002;2023-02-15T01:21:13;98427.28;;;3.07;83.68
36630;BME280;36256;42.154;23.002;2023-02-15T01:23:41;98431.47;;;2.94;83.79
36630;BME280;36256;42.154;23.002;2023-02-15T01:26:09;98434.91;;;2.84;83.80
36630;BME280;36256;42.154;23.002;2023-02-15T01:28:38;98434.53;;;2.86;84.25
36630;BME280;36256;42.154;23.002;2023-02-15T01:31:14;98433.63;;;2.78;84.64
36630;BME280;36256;42.154;23.002;2023-02-15T01:33:42;98425.53;;;2.66;84.36
36630;BME280;36256;42.154;23.002;2023-02-15T01:36:10;98434.34;;;2.72;84.14
36630;BME280;36256;42.154;23.002;2023-02-15T01:42:00;98427.38;;;2.55;84.38
36630;BME280;36256;42.154;23.002;2023-02-15T01:44:53;98430.91;;;2.56;84.93
36630;BME280;36256;42.154;23.002;2023-02-15T01:47:25;98427.00;;;2.57;84.37
36630;BME280;36256;42.154;23.002;2023-02-15T01:50:02;98425.34;;;2.52;84.57
36630;BME280;36256;42.154;23.002;2023-02-15T01:52:30;98428.34;;;2.40;85.03
36630;BME280;36256;42.154;23.002;2023-02-15T01:54:57;98434.84;;;2.51;85.13
36630;BME280;36256;42.154;23.002;2023-02-15T01:57:25;98441.13;;;2.48;85.09
36630;BME280;36256;42.154;23.002;2023-02-15T01:59:56;98434.50;;;2.56;85.32
36630;BME280;36256;42.154;23.002;2023-02-15T02:02:26;98429.50;;;2.65;85.52
36630;BME280;36256;42.154;23.002;2023-02-15T02:04:59;98424.38;;;2.67;84.70
36630;BME280;36256;42.154;23.002;2023-02-15T02:07:33;98429.38;;;2.58;84.74
36630;BME280;36256;42.154;23.002;2023-02-15T02:10:01;98435.69;;;2.55;84.90
36630;BME280;36256;42.154;23.002;2023-02-15T02:12:28;98433.22;;;2.50;85.35
36630;BME280;36256;42.154;23.002;2023-02-15T02:14:56;98441.91;;;2.49;85.60
36630;BME280;36256;42.154;23.002;2023-02-15T02:23:32;98430.78;;;2.45;86.31
36630;BME280;36256;42.154;23.002;2023-02-15T02:29:26;98436.66;;;2.40;86.69
36630;BME280;36256;42.154;23.002;2023-02-15T02:34:47;98433.91;;;2.44;85.34
36630;BME280;36256;42.154;23.002;2023-02-15T02:37:24;98442.50;;;2.35;84.05
36630;BME280;36256;42.154;23.002;2023-02-15T02:42:41;98440.16;;;2.11;85.10
36630;BME280;36256;42.154;23.002;2023-02-15T02:45:16;98436.63;;;2.14;85.18
36630;BME280;36256;42.154;23.002;2023-02-15T02:47:50;98441.31;;;2.10;85.49
36630;BME280;36256;42.154;23.002;2023-02-15T02:50:28;98442.50;;;2.09;85.40
36630;BME280;36256;42.154;23.002;2023-02-15T02:52:57;98448.28;;;2.00;85.66
36630;BME280;36256;42.154;23.002;2023-02-15T02:58:16;98449.81;;;1.98;85.36
36630;BME280;36256;42.154;23.002;2023-02-15T03:00:48;98455.28;;;1.94;85.17
36630;BME280;36256;42.154;23.002;2023-02-15T03:03:53;98448.69;;;1.80;85.95
36630;BME280;36256;42.154;23.002;2023-02-15T03:06:30;98450.16;;;1.74;86.25
36630;BME280;36256;42.154;23.002;2023-02-15T03:09:09;98461.13;;;1.67;87.17
36630;BME280;36256;42.154;23.002;2023-02-15T03:11:45;98463.38;;;1.61;87.37
36630;BME280;36256;42.154;23.002;2023-02-15T03:14:14;98470.00;;;1.56;87.47
36630;BME280;36256;42.154;23.002;2023-02-15T03:16:42;98455.38;;;1.56;87.83
36630;BME280;36256;42.154;23.002;2023-02-15T03:19:19;98463.50;;;1.68;86.93
36630;BME280;36256;42.154;23.002;2023-02-15T03:21:53;98451.50;;;1.60;87.04
36630;BME280;36256;42.154;23.002;2023-02-15T03:24:51;98460.31;;;1.66;87.09
36630;BME280;36256;42.154;23.002;2023-02-15T03:27:24;98456.31;;;1.64;87.05
36630;BME280;36256;42.154;23.002;2023-02-15T03:29:55;98456.16;;;1.56;86.91
36630;BME280;36256;42.154;23.002;2023-02-15T03:32:25;98466.28;;;1.68;86.96
36630;BME280;36256;42.154;23.002;2023-02-15T03:34:54;98468.28;;;1.71;86.46
36630;BME280;36256;42.154;23.002;2023-02-15T03:37:41;98438.00;;;1.55;86.75
36630;BME280;36256;42.154;23.002;2023-02-15T03:40:19;98463.47;;;1.65;87.08
36630;BME280;36256;42.154;23.002;2023-02-15T03:43:27;98462.94;;;1.59;87.40
36630;BME280;36256;42.154;23.002;2023-02-15T03:46:01;98459.06;;;1.64;87.40
36630;BME280;36256;42.154;23.002;2023-02-15T03:48:50;98454.00;;;1.46;88.51
36630;BME280;36256;42.154;23.002;2023-02-15T03:51:21;98457.78;;;1.57;88.20
36630;BME280;36256;42.154;23.002;2023-02-15T03:54:16;98458.50;;;1.54;87.92
36630;BME280;36256;42.154;23.002;2023-02-15T03:57:05;98469.66;;;1.58;87.90
36630;BME280;36256;42.154;23.002;2023-02-15T03:59:51;98468.84;;;1.57;87.74
36630;BME280;36256;42.154;23.002;2023-02-15T04:02:49;98463.16;;;1.50;88.10
36630;BME280;36256;42.154;23.002;2023-02-15T04:05:17;98470.22;;;1.48;88.27
36630;BME280;36256;42.154;23.002;2023-02-15T04:07:43;98471.91;;;1.52;88.26
36630;BME280;36256;42.154;23.002;2023-02-15T04:10:10;98463.13;;;1.47;88.38
36630;BME280;36256;42.154;23.002;2023-02-15T04:12:56;98476.56;;;1.48;88.64
36630;BME280;36256;42.154;23.002;2023-02-15T04:15:22;98471.78;;;1.45;88.88
36630;BME280;36256;42.154;23.002;2023-02-15T04:18:07;98474.56;;;1.45;88.94
36630;BME280;36256;42.154;23.002;2023-02-15T04:20:34;98480.50;;;1.47;89.21
36630;BME280;36256;42.154;23.002;2023-02-15T04:23:19;98489.38;;;1.56;88.26
36630;BME280;36256;42.154;23.002;2023-02-15T04:26:05;98484.59;;;1.53;87.78
36630;BME280;36256;42.154;23.002;2023-02-15T04:28:32;98498.25;;;1.46;88.02
36630;BME280;36256;42.154;23.002;2023-02-15T04:30:58;98493.53;;;1.47;87.99
36630;BME280;36256;42.154;23.002;2023-02-15T04:33:25;98493.25;;;1.52;87.80
36630;BME280;36256;42.154;23.002;2023-02-15T04:35:51;98492.28;;;1.44;88.08
36630;BME280;36256;42.154;23.002;2023-02-15T04:38:18;98493.03;;;1.41;88.22
36630;BME280;36256;42.154;23.002;2023-02-15T04:40:49;98494.47;;;1.35;88.67
36630;BME280;36256;42.154;23.002;2023-02-15T04:43:16;98503.59;;;1.36;88.96
36630;BME280;36256;42.154;23.002;2023-02-15T04:45:48;98508.03;;;1.40;88.58
36630;BME280;36256;42.154;23.002;2023-02-15T04:48:16;98510.72;;;1.37;88.75
36630;BME280;36256;42.154;23.002;2023-02-15T04:50:43;98507.88;;;1.33;88.58
36630;BME280;36256;42.154;23.002;2023-02-15T04:53:10;98519.91;;;1.41;88.74
36630;BME280;36256;42.154;23.002;2023-02-15T04:55:37;98522.28;;;1.42;89.18
36630;BME280;36256;42.154;23.002;2023-02-15T04:58:04;98523.91;;;1.43;87.98
36630;BME280;36256;42.154;23.002;2023-02-15T05:00:30;98529.56;;;1.50;88.04
36630;BME280;36256;42.154;23.002;2023-02-15T05:02:57;98530.84;;;1.56;87.59
36630;BME280;36256;42.154;23.002;2023-02-15T05:05:23;98539.59;;;1.58;87.47
36630;BME280;36256;42.154;23.002;2023-02-15T05:07:50;98537.63;;;1.59;87.31
36630;BME280;36256;42.154;23.002;2023-02-15T05:10:17;98534.81;;;1.55;87.24
36630;BME280;36256;42.154;23.002;2023-02-15T05:12:43;98542.31;;;1.55;87.89
36630;BME280;36256;42.154;23.002;2023-02-15T05:15:10;98541.50;;;1.54;87.36
36630;BME280;36256;42.154;23.002;2023-02-15T05:17:37;98541.22;;;1.59;87.12
36630;BME280;36256;42.154;23.002;2023-02-15T05:20:04;98545.56;;;1.60;86.76
36630;BME280;36256;42.154;23.002;2023-02-15T05:22:31;98551.84;;;1.57;87.05
36630;BME280;36256;42.154;23.002;2023-02-15T05:24:57;98554.59;;;1.57;86.74
36630;BME280;36256;42.154;23.002;2023-02-15T05:27:42;98561.22;;;1.53;86.83
36630;BME280;36256;42.154;23.002;2023-02-15T05:30:30;98565.94;;;1.52;86.93
36630;BME280;36256;42.154;23.002;2023-02-15T05:32:57;98565.22;;;1.55;86.63
36630;BME280;36256;42.154;23.002;2023-02-15T05:35:23;98566.81;;;1.56;86.59
36630;BME280;36256;42.154;23.002;2023-02-15T05:37:50;98563.78;;;1.62;86.45
36630;BME280;36256;42.154;23.002;2023-02-15T05:40:17;98560.56;;;1.59;86.72
36630;BME280;36256;42.154;23.002;2023-02-15T05:42:43;98562.63;;;1.63;86.21
36630;BME280;36256;42.154;23.002;2023-02-15T05:45:10;98573.97;;;1.57;86.35
36630;BME280;36256;42.154;23.002;2023-02-15T05:47:37;98564.81;;;1.53;86.54
36630;BME280;36256;42.154;23.002;2023-02-15T05:50:04;98573.91;;;1.54;86.29
36630;BME280;36256;42.154;23.002;2023-02-15T05:52:30;98581.25;;;1.66;86.10
36630;BME280;36256;42.154;23.002;2023-02-15T05:54:57;98577.22;;;1.63;85.19
36630;BME280;36256;42.154;23.002;2023-02-15T05:57:26;98579.56;;;1.61;85.28
36630;BME280;36256;42.154;23.002;2023-02-15T05:59:53;98571.47;;;1.52;85.92
36630;BME280;36256;42.154;23.002;2023-02-15T06:02:19;98572.34;;;1.56;85.61
36630;BME280;36256;42.154;23.002;2023-02-15T06:04:46;98588.25;;;1.59;85.47
36630;BME280;36256;42.154;23.002;2023-02-15T06:07:13;98573.69;;;1.63;86.12
36630;BME280;36256;42.154;23.002;2023-02-15T06:09:39;98572.34;;;1.56;85.98
36630;BME280;36256;42.154;23.002;2023-02-15T06:12:06;98573.59;;;1.59;85.62
36630;BME280;36256;42.154;23.002;2023-02-15T06:14:33;98581.84;;;1.55;85.44
36630;BME280;36256;42.154;23.002;2023-02-15T06:16:59;98576.25;;;1.52;85.73
36630;BME280;36256;42.154;23.002;2023-02-15T06:19:26;98581.91;;;1.59;85.58
36630;BME280;36256;42.154;23.002;2023-02-15T06:21:52;98584.44;;;1.68;85.76
36630;BME280;36256;42.154;23.002;2023-02-15T06:24:19;98587.59;;;1.66;85.14
36630;BME280;36256;42.154;23.002;2023-02-15T06:26:45;98591.28;;;1.74;85.08
36630;BME280;36256;42.154;23.002;2023-02-15T06:29:12;98578.09;;;1.67;84.67
36630;BME280;36256;42.154;23.002;2023-02-15T06:31:39;98583.72;;;1.71;84.61
36630;BME280;36256;42.154;23.002;2023-02-15T06:34:05;98580.97;;;1.71;85.12
36630;BME280;36256;42.154;23.002;2023-02-15T06:36:32;98580.66;;;1.76;84.81
36630;BME280;36256;42.154;23.002;2023-02-15T06:38:59;98581.53;;;1.80;84.73
36630;BME280;36256;42.154;23.002;2023-02-15T06:41:25;98581.66;;;1.87;83.84
36630;BME280;36256;42.154;23.002;2023-02-15T06:43:52;98576.34;;;1.97;84.06
36630;BME280;36256;42.154;23.002;2023-02-15T06:46:18;98581.00;;;1.93;83.84
36630;BME280;36256;42.154;23.002;2023-02-15T06:48:45;98582.97;;;1.93;84.58
36630;BME280;36256;42.154;23.002;2023-02-15T06:51:12;98579.47;;;1.96;83.87
36630;BME280;36256;42.154;23.002;2023-02-15T06:53:38;98575.25;;;2.02;83.08
36630;BME280;36256;42.154;23.002;2023-02-15T06:56:08;98582.06;;;2.08;83.27
36630;BME280;36256;42.154;23.002;2023-02-15T06:58:36;98579.78;;;2.13;82.80
36630;BME280;36256;42.154;23.002;2023-02-15T07:01:03;98579.88;;;2.17;83.00
36630;BME280;36256;42.154;23.002;2023-02-15T07:03:30;98581.53;;;2.21;81.99
36630;BME280;36256;42.154;23.002;2023-02-15T07:05:58;98587.81;;;2.18;83.00
36630;BME280;36256;42.154;23.002;2023-02-15T07:08:26;98579.00;;;2.13;82.51
36630;BME280;36256;42.154;23.002;2023-02-15T07:10:54;98586.66;;;2.42;81.50
36630;BME280;36256;42.154;23.002;2023-02-15T07:13:42;98589.00;;;2.40;81.05
36630;BME280;36256;42.154;23.002;2023-02-15T07:16:11;98574.28;;;2.36;81.24
36630;BME280;36256;42.154;23.002;2023-02-15T07:18:39;98589.13;;;2.47;80.51
36630;BME280;36256;42.154;23.002;2023-02-15T07:21:06;98587.50;;;2.46;80.86
36630;BME280;36256;42.154;23.002;2023-02-15T07:23:37;98593.19;;;2.53;81.54
36630;BME280;36256;42.154;23.002;2023-02-15T07:26:05;98588.06;;;2.55;80.62
36630;BME280;36256;42.154;23.002;2023-02-15T07:28:33;98586.59;;;2.61;80.79
36630;BME280;36256;42.154;23.002;2023-02-15T07:31:04;98579.19;;;2.69;80.70
36630;BME280;36256;42.154;23.002;2023-02-15T07:33:31;98590.44;;;2.79;80.35
36630;BME280;36256;42.154;23.002;2023-02-15T07:35:59;98583.31;;;2.78;79.56
36630;BME280;36256;42.154;23.002;2023-02-15T07:38:32;98593.63;;;2.81;80.17
36630;BME280;36256;42.154;23.002;2023-02-15T07:41:03;98585.66;;;2.76;79.89
36630;BME280;36256;42.154;23.002;2023-02-15T07:43:33;98594.50;;;2.85;80.23
36630;BME280;36256;42.154;23.002;2023-02-15T07:46:05;98584.41;;;3.00;79.79
36630;BME280;36256;42.154;23.002;2023-02-15T07:48:32;98586.00;;;2.97;78.50
36630;BME280;36256;42.154;23.002;2023-02-15T07:50:59;98569.66;;;2.92;79.22
36630;BME280;36256;42.154;23.002;2023-02-15T07:53:26;98579.84;;;3.11;78.96
36630;BME280;36256;42.154;23.002;2023-02-15T07:55:53;98580.66;;;3.11;79.19
36630;BME280;36256;42.154;23.002;2023-02-15T07:58:20;98584.69;;;3.17;78.71
36630;BME280;36256;42.154;23.002;2023-02-15T08:00:47;98574.56;;;3.29;77.87
36630;BME280;36256;42.154;23.002;2023-02-15T08:03:28;98587.19;;;3.26;78.27
36630;BME280;36256;42.154;23.002;2023-02-15T08:05:57;98581.69;;;3.30;78.29
36630;BME280;36256;42.154;23.002;2023-02-15T08:08:26;98583.31;;;3.31;78.68
36630;BME280;36256;42.154;23.002;2023-02-15T08:11:00;98578.19;;;3.33;78.54
36630;BME280;36256;42.154;23.002;2023-02-15T08:13:47;98573.47;;;3.37;78.17
36630;BME280;36256;42.154;23.002;2023-02-15T08:16:33;98574.75;;;3.43;78.37
36630;BME280;36256;42.154;23.002;2023-02-15T08:21:42;98570.88;;;3.51;77.49
36630;BME280;36256;42.154;23.002;2023-02-15T08:24:10;98570.59;;;3.59;77.00
36630;BME280;36256;42.154;23.002;2023-02-15T08:26:38;98555.75;;;3.45;77.59
36630;BME280;36256;42.154;23.002;2023-02-15T08:29:08;98576.22;;;3.63;77.89
36630;BME280;36256;42.154;23.002;2023-02-15T08:31:35;98571.13;;;3.68;77.47
36630;BME280;36256;42.154;23.002;2023-02-15T08:34:04;98570.41;;;3.75;76.86
36630;BME280;36256;42.154;23.002;2023-02-15T08:36:30;98576.88;;;3.86;76.19
36630;BME280;36256;42.154;23.002;2023-02-15T08:39:03;98582.47;;;3.89;77.25
36630;BME280;36256;42.154;23.002;2023-02-15T08:41:32;98572.16;;;3.90;77.36
36630;BME280;36256;42.154;23.002;2023-02-15T08:44:02;98576.72;;;4.05;76.66
36630;BME280;36256;42.154;23.002;2023-02-15T08:46:32;98572.44;;;4.15;76.06
36630;BME280;36256;42.154;23.002;2023-02-15T08:48:59;98566.25;;;4.28;74.88
36630;BME280;36256;42.154;23.002;2023-02-15T08:51:31;98569.47;;;4.34;76.04
36630;BME280;36256;42.154;23.002;2023-02-15T08:54:00;98566.34;;;4.39;75.71
36630;BME280;36256;42.154;23.002;2023-02-15T08:56:29;98570.47;;;4.55;75.13
36630;BME280;36256;42.154;23.002;2023-02-15T08:58:58;98553.00;;;4.58;74.04
36630;BME280;36256;42.154;23.002;2023-02-15T09:01:27;98565.16;;;4.84;74.83
36630;BME280;36256;42.154;23.002;2023-02-15T09:04:00;98561.25;;;4.99;73.19
36630;BME280;36256;42.154;23.002;2023-02-15T09:06:27;98566.13;;;5.09;72.91
36630;BME280;36256;42.154;23.002;2023-02-15T09:08:54;98563.06;;;5.31;72.97
36630;BME280;36256;42.154;23.002;2023-02-15T09:14:02;98559.28;;;5.68;71.19
36630;BME280;36256;42.154;23.002;2023-02-15T09:16:31;98557.72;;;5.77;69.83
36630;BME280;36256;42.154;23.002;2023-02-15T09:18:58;98551.84;;;5.93;70.27
36630;BME280;36256;42.154;23.002;2023-02-15T09:21:26;98549.47;;;5.95;69.08
36630;BME280;36256;42.154;23.002;2023-02-15T09:23:56;98544.31;;;6.00;69.86
36630;BME280;36256;42.154;23.002;2023-02-15T09:26:24;98547.91;;;6.08;68.85
36630;BME280;36256;42.154;23.002;2023-02-15T09:28:51;98543.59;;;6.46;68.92
36630;BME280;36256;42.154;23.002;2023-02-15T09:31:20;98535.59;;;7.07;65.10
36630;BME280;36256;42.154;23.002;2023-02-15T09:33:48;98530.59;;;7.82;61.40
36630;BME280;36256;42.154;23.002;2023-02-15T09:36:26;98526.19;;;8.57;60.66
36630;BME280;36256;42.154;23.002;2023-02-15T09:39:13;98513.34;;;8.63;59.04
36630;BME280;36256;42.154;23.002;2023-02-15T09:52:06;98512.59;;;8.55;57.57
36630;BME280;36256;42.154;23.002;2023-02-15T10:00:29;98516.56;;;7.92;60.04
36630;BME280;36256;42.154;23.002;2023-02-15T10:03:04;98508.25;;;7.85;59.19
36630;BME280;36256;42.154;23.002;2023-02-15T10:21:53;98482.81;;;8.83;57.04
36630;BME280;36256;42.154;23.002;2023-02-15T10:24:42;98483.47;;;8.97;56.54
36630;BME280;36256;42.154;23.002;2023-02-15T10:27:19;98473.69;;;9.12;57.80
36630;BME280;36256;42.154;23.002;2023-02-15T10:32:58;98460.09;;;9.14;55.52
36630;BME280;36256;42.154;23.002;2023-02-15T10:59:39;98429.03;;;10.22;54.21
36630;BME280;36256;42.154;23.002;2023-02-15T11:02:37;98424.13;;;10.30;54.96
36630;BME280;36256;42.154;23.002;2023-02-15T11:05:16;98428.50;;;10.31;54.47
36630;BME280;36256;42.154;23.002;2023-02-15T11:07:47;98415.09;;;10.42;52.63
36630;BME280;36256;42.154;23.002;2023-02-15T11:10:35;98441.09;;;10.69;52.78
36630;BME280;36256;42.154;23.002;2023-02-15T11:13:08;98440.81;;;10.37;51.35
36630;BME280;36256;42.154;23.002;2023-02-15T11:15:44;98439.97;;;10.40;51.70
36630;BME280;36256;42.154;23.002;2023-02-15T11:21:09;98426.50;;;10.78;49.94
36630;BME280;36256;42.154;23.002;2023-02-15T11:23:43;98429.84;;;10.92;50.46
36630;BME280;36256;42.154;23.002;2023-02-15T11:29:18;98407.56;;;11.25;50.72
36630;BME280;36256;42.154;23.002;2023-02-15T11:31:54;98408.22;;;11.13;49.42
36630;BME280;36256;42.154;23.002;2023-02-15T11:36:50;98415.19;;;11.44;48.28
36630;BME280;36256;42.154;23.002;2023-02-15T11:39:20;98404.41;;;11.42;48.91
36630;BME280;36256;42.154;23.002;2023-02-15T11:41:50;98404.53;;;11.35;48.58
36630;BME280;36256;42.154;23.002;2023-02-15T11:44:31;98392.78;;;11.21;48.60
36630;BME280;36256;42.154;23.002;2023-02-15T11:46:59;98401.50;;;11.46;48.90
36630;BME280;36256;42.154;23.002;2023-02-15T11:49:32;98398.91;;;11.35;47.91
36630;BME280;36256;42.154;23.002;2023-02-15T11:52:02;98406.50;;;11.38;48.06
36630;BME280;36256;42.154;23.002;2023-02-15T11:54:34;98411.72;;;11.36;47.59
36630;BME280;36256;42.154;23.002;2023-02-15T11:57:31;98413.69;;;11.59;48.18
36630;BME280;36256;42.154;23.002;2023-02-15T12:00:39;98404.91;;;11.57;47.63
36630;BME280;36256;42.154;23.002;2023-02-15T12:03:14;98402.25;;;11.69;49.58
36630;BME280;36256;42.154;23.002;2023-02-15T12:05:45;98397.78;;;11.88;46.96
36630;BME280;36256;42.154;23.002;2023-02-15T12:08:19;98392.72;;;11.99;48.00
36630;BME280;36256;42.154;23.002;2023-02-15T12:14:11;98391.03;;;11.66;46.65
36630;BME280;36256;42.154;23.002;2023-02-15T12:16:43;98379.25;;;11.55;47.18
36630;BME280;36256;42.154;23.002;2023-02-15T12:19:31;98390.19;;;11.69;46.93
36630;BME280;36256;42.154;23.002;2023-02-15T12:22:01;98379.88;;;11.82;48.47
36630;BME280;36256;42.154;23.002;2023-02-15T12:24:37;98376.22;;;12.01;46.43
36630;BME280;36256;42.154;23.002;2023-02-15T12:27:19;98381.72;;;11.89;45.78
36630;BME280;36256;42.154;23.002;2023-02-15T12:29:51;98364.88;;;11.69;47.26
36630;BME280;36256;42.154;23.002;2023-02-15T12:32:31;98370.44;;;11.53;46.45
36630;BME280;36256;42.154;23.002;2023-02-15T12:37:33;98352.69;;;11.56;46.21
36630;BME280;36256;42.154;23.002;2023-02-15T12:40:02;98361.22;;;11.72;47.99
36630;BME280;36256;42.154;23.002;2023-02-15T12:42:44;98360.78;;;11.90;45.89
36630;BME280;36256;42.154;23.002;2023-02-15T12:48:07;98347.72;;;11.99;45.86
36630;BME280;36256;42.154;23.002;2023-02-15T12:50:34;98347.72;;;11.99;45.77
36630;BME280;36256;42.154;23.002;2023-02-15T12:53:08;98345.59;;;12.19;45.02
36630;BME280;36256;42.154;23.002;2023-02-15T12:55:50;98344.75;;;12.22;44.03
36630;BME280;36256;42.154;23.002;2023-02-15T12:58:19;98336.19;;;12.26;44.70
36630;BME280;36256;42.154;23.002;2023-02-15T13:00:46;98345.88;;;12.09;44.35
36630;BME280;36256;42.154;23.002;2023-02-15T13:03:23;98340.50;;;11.98;44.26
36630;BME280;36256;42.154;23.002;2023-02-15T13:05:55;98333.31;;;11.97;44.71
36630;BME280;36256;42.154;23.002;2023-02-15T13:08:33;98338.75;;;12.04;46.04
36630;BME280;36256;42.154;23.002;2023-02-15T13:13:32;98342.25;;;12.40;44.57
36630;BME280;36256;42.154;23.002;2023-02-15T13:16:11;98341.28;;;12.47;45.06
36630;BME280;36256;42.154;23.002;2023-02-15T13:18:44;98333.66;;;12.15;43.48
36630;BME280;36256;42.154;23.002;2023-02-15T13:23:46;98320.09;;;12.10;44.01
36630;BME280;36256;42.154;23.002;2023-02-15T13:26:18;98315.69;;;12.25;43.34
36630;BME280;36256;42.154;23.002;2023-02-15T13:28:49;98318.00;;;12.30;43.33
36630;BME280;36256;42.154;23.002;2023-02-15T13:31:20;98308.81;;;12.42;44.39
36630;BME280;36256;42.154;23.002;2023-02-15T13:34:09;98312.09;;;12.41;43.56
36630;BME280;36256;42.154;23.002;2023-02-15T13:39:38;98323.44;;;12.37;42.92
36630;BME280;36256;42.154;23.002;2023-02-15T13:45:38;98318.69;;;12.02;44.86
36630;BME280;36256;42.154;23.002;2023-02-15T13:48:17;98317.91;;;12.02;45.26
36630;BME280;36256;42.154;23.002;2023-02-15T13:59:09;98317.84;;;12.05;45.71
36630;BME280;36256;42.154;23.002;2023-02-15T14:01:57;98313.25;;;12.11;45.16
36630;BME280;36256;42.154;23.002;2023-02-15T14:07:24;98317.28;;;12.26;44.54
36630;BME280;36256;42.154;23.002;2023-02-15T14:29:59;98318.25;;;11.52;45.60
36630;BME280;36256;42.154;23.002;2023-02-15T14:32:36;98325.22;;;11.63;46.19
36630;BME280;36256;42.154;23.002;2023-02-15T14:35:18;98327.84;;;11.74;46.55
36630;BME280;36256;42.154;23.002;2023-02-15T14:43:47;98336.72;;;11.53;46.27
36630;BME280;36256;42.154;23.002;2023-02-15T14:46:44;98336.63;;;11.56;46.05
36630;BME280;36256;42.154;23.002;2023-02-15T14:56:46;98335.63;;;11.47;47.12
36630;BME280;36256;42.154;23.002;2023-02-15T14:59:19;98332.91;;;11.43;46.22
36630;BME280;36256;42.154;23.002;2023-02-15T15:01:55;98333.00;;;11.40;47.09
36630;BME280;36256;42.154;23.002;2023-02-15T15:04:32;98331.22;;;11.30;46.72
36630;BME280;36256;42.154;23.002;2023-02-15T15:09:40;98340.84;;;11.09;47.13
36630;BME280;36256;42.154;23.002;2023-02-15T15:14:48;98331.34;;;11.03;47.59
36630;BME280;36256;42.154;23.002;2023-02-15T15:22:28;98344.06;;;10.68;49.01
36630;BME280;36256;42.154;23.002;2023-02-15T15:25:08;98334.69;;;10.55;48.68
36630;BME280;36256;42.154;23.002;2023-02-15T15:27:45;98350.19;;;10.40;50.23
36630;BME280;36256;42.154;23.002;2023-02-15T15:35:33;98347.97;;;9.78;51.60
36630;BME280;36256;42.154;23.002;2023-02-15T15:41:19;98349.81;;;9.62;53.16
36630;BME280;36256;42.154;23.002;2023-02-15T15:47:13;98348.25;;;9.61;52.30
36630;BME280;36256;42.154;23.002;2023-02-15T15:49:45;98353.41;;;9.35;53.36
36630;BME280;36256;42.154;23.002;2023-02-15T15:52:16;98359.84;;;9.32;52.56
36630;BME280;36256;42.154;23.002;2023-02-15T15:54:46;98358.44;;;9.17;53.45
36630;BME280;36256;42.154;23.002;2023-02-15T15:57:38;98360.13;;;9.11;53.22
36630;BME280;36256;42.154;23.002;2023-02-15T16:00:32;98369.06;;;8.99;54.49
36630;BME280;36256;42.154;23.002;2023-02-15T16:03:01;98369.97;;;8.89;54.21
36630;BME280;36256;42.154;23.002;2023-02-15T16:05:35;98364.47;;;8.82;54.00
36630;BME280;36256;42.154;23.002;2023-02-15T16:08:02;98367.75;;;8.74;55.12
36630;BME280;36256;42.154;23.002;2023-02-15T16:10:30;98364.69;;;8.61;55.39
36630;BME280;36256;42.154;23.002;2023-02-15T16:13:01;98374.03;;;8.44;55.63
36630;BME280;36256;42.154;23.002;2023-02-15T16:15:45;98384.19;;;8.20;56.27
36630;BME280;36256;42.154;23.002;2023-02-15T16:18:17;98381.16;;;8.01;56.35
36630;BME280;36256;42.154;23.002;2023-02-15T16:28:52;98390.03;;;7.20;59.38
36630;BME280;36256;42.154;23.002;2023-02-15T16:31:21;98393.69;;;7.09;61.06
36630;BME280;36256;42.154;23.002;2023-02-15T16:33:55;98395.72;;;6.84;61.31